Munds Park, AZ (86017)

10:43 AM MST on August 28, 2015 (GMT -0700)
Munds Park Crystal Brook | | Change Station
CLOSE
Current Station
Personal Weather Station
Location: Munds Park, AZ
Elevation: 6598 ft
Nearby Weather Stations

Elev 6598 ft 34.94 °N, 111.64 °W | Updated 4 seconds ago

Clear
Clear
78.3 °F
Feels Like 78 °F
N
5.1
Wind Variable Wind from NNW
Gusts 7.4 mph

Today
High -- | Low -- °F
--% Chance of Precip.
Yesterday
High -- | Low -- °F
Precip. -- in
5:56 AM 6:58 PM
Waxing Gibbous, 98% visible
Pressure 30.09 in
Visibility 10.0 miles
Clouds Clear
Heat Index 78 °F
Dew Point 45 °F
Humidity 31%
Rainfall 0.00 in
Snow Depth Not available.
UV 7.0 out of 12
Pollen 4.90 out of 12
Air Quality Not available.
Flu Activity Not available.
METAR KFLG 281657Z 05009KT 10SM CLR 23/09 A3039 RMK AO2 SLP188 T02330094
Pressure 30.09 in
Visibility 10.0 miles
Clouds Clear
Heat Index 78 °F
Dew Point 45 °F
Humidity 31%
Rainfall 0.00 in
Snow Depth Not available.
UV 7.0 out of 12
Pollen 4.90 out of 12
Air Quality Not available.
Flu Activity Not available.
METAR KFLG 281657Z 05009KT 10SM CLR 23/09 A3039 RMK AO2 SLP188 T02330094

10-Day Weather Forecast

×

Almanac

Astronomy

Aug. 28, 2015 Rise Set
Actual Time
Civil Twilight
Nautical Twilight
Astronomical Twilight
Moon
Length of Visible Light
Length of Day
Tomorrow will be .
, % of the Moon is Illuminated

Today's Extremes

State Highs State Lows

Community

WunderPhotos

Upload Photos

1,850,444 photos uploaded!

WunderBlogs® & News

Nearby

Air Quality

  Air Quality AQ Index Pollutant
Not available.

Snow Depth

Station Depth Elevation

Earthquake Activity

City Distance Mag. Time & Date
Minimum magnitude displayed is 2.5.

Coastal Water Temperatures

Place Temperature

Stations

Nearby Weather Stations

Station Location Temp. Windchill Dew Point Humidity Wind Precip. Elev Updated Type